Aviation Digital Data Service (ADDS)

Output produced by METARs form (2255 UTC 20 January 2019)
found at http://www.aviationweather.gov/metar/data/
 
METAR text: ROIG 202200Z 01013KT 9999 -SHRA SCT020 BKN038 17/15 Q1020
Conditions at: ROIG (ISHIGAKIJIMA ISL, JP) observed 2200 UTC 20 January 2019
Temperature: 17.0°C (63°F)
Dewpoint: 15.0°C (59°F) [RH = 88%]
Pressure (altimeter): 30.12 inches Hg (1020.0 mb)
Winds: from the N (10 degrees) at 15 MPH (13 knots; 6.7 m/s)
Visibility: 6 or more miles (10+ km)
Ceiling: 3800 feet AGL
Clouds: scattered clouds at 2000 feet AGL
broken clouds at 3800 feet AGL
Weather: -SHRA  (light rain showers)

METAR text: ROIG 202100Z 02014KT 9999 SCT021 BKN040 18/14 Q1019
Conditions at: ROIG (ISHIGAKIJIMA ISL, JP) observed 2100 UTC 20 January 2019
Temperature: 18.0°C (64°F)
Dewpoint: 14.0°C (57°F) [RH = 77%]
Pressure (altimeter): 30.09 inches Hg (1019.0 mb)
Winds: from the NNE (20 degrees) at 16 MPH (14 knots; 7.2 m/s)
Visibility: 6 or more miles (10+ km)
Ceiling: 4000 feet AGL
Clouds: scattered clouds at 2100 feet AGL
broken clouds at 4000 feet AGL
Weather: no significant weather observed at this time

METAR text: ROIG 201100Z 02013KT 9999 FEW015 BKN030 19/16 Q1019
Conditions at: ROIG (ISHIGAKIJIMA ISL, JP) observed 1100 UTC 20 January 2019
Temperature: 19.0°C (66°F)
Dewpoint: 16.0°C (61°F) [RH = 83%]
Pressure (altimeter): 30.09 inches Hg (1019.0 mb)
Winds: from the NNE (20 degrees) at 15 MPH (13 knots; 6.7 m/s)
Visibility: 6 or more miles (10+ km)
Ceiling: 3000 feet AGL
Clouds: few clouds at 1500 feet AGL
broken clouds at 3000 feet AGL
Weather: no significant weather observed at this time

METAR text: ROIG 201000Z 02017KT 9999 VCSH SCT014 BKN033 19/17 Q1019
Conditions at: ROIG (ISHIGAKIJIMA ISL, JP) observed 1000 UTC 20 January 2019
Temperature: 19.0°C (66°F)
Dewpoint: 17.0°C (63°F) [RH = 88%]
Pressure (altimeter): 30.09 inches Hg (1019.0 mb)
Winds: from the NNE (20 degrees) at 20 MPH (17 knots; 8.7 m/s)
Visibility: 6 or more miles (10+ km)
Ceiling: 3300 feet AGL
Clouds: scattered clouds at 1400 feet AGL
broken clouds at 3300 feet AGL
Weather: VCSH  (showers in vicinity)

METAR text: ROIG 200900Z 01014G24KT 340V040 7000 -SHRA FEW007 SCT013 BKN025 18/17 Q1018
Conditions at: ROIG (ISHIGAKIJIMA ISL, JP) observed 0900 UTC 20 January 2019
Temperature: 18.0°C (64°F)
Dewpoint: 17.0°C (63°F) [RH = 94%]
Pressure (altimeter): 30.06 inches Hg (1018.0 mb)
Winds: from the N (10 degrees) at 16 MPH (14 knots; 7.2 m/s)
gusting to 28 MPH (24 knots; 12.3 m/s)
Visibility: 4 miles ( 7 km)
Ceiling: 2500 feet AGL
Clouds: few clouds at 700 feet AGL
scattered clouds at 1300 feet AGL
broken clouds at 2500 feet AGL
Weather: -SHRA  (light rain showers)

METAR text: ROIG 200800Z 02013KT 7000 -SHRA FEW007 SCT011 BKN022 18/18 Q1018
Conditions at: ROIG (ISHIGAKIJIMA ISL, JP) observed 0800 UTC 20 January 2019
Temperature: 18.0°C (64°F)
Dewpoint: 18.0°C (64°F) [RH = 100%]
Pressure (altimeter): 30.06 inches Hg (1018.0 mb)
Winds: from the NNE (20 degrees) at 15 MPH (13 knots; 6.7 m/s)
Visibility: 4 miles ( 7 km)
Ceiling: 2200 feet AGL
Clouds: few clouds at 700 feet AGL
scattered clouds at 1100 feet AGL
broken clouds at 2200 feet AGL
Weather: -SHRA  (light rain showers)

METAR text: ROIG 200736Z 02016KT 6000 -SHRA FEW007 SCT011 BKN020 18/18 Q1018 RMK 1ST007 4CU011 7CU020 A3007
Conditions at: ROIG (ISHIGAKIJIMA ISL, JP) observed 0736 UTC 20 January 2019
Temperature: 18.0°C (64°F)
Dewpoint: 18.0°C (64°F) [RH = 100%]
Pressure (altimeter): 30.06 inches Hg (1018.0 mb)
Winds: from the NNE (20 degrees) at 18 MPH (16 knots; 8.2 m/s)
Visibility: 4 miles ( 6 km)
Ceiling: 2000 feet AGL
Clouds: few clouds at 700 feet AGL
scattered clouds at 1100 feet AGL
broken clouds at 2000 feet AGL
Weather: -SHRA  (light rain showers)

METAR text: ROIG 200700Z 02014KT 4000 -SHRA BR FEW006 BKN010 BKN015 18/18 Q1017
Conditions at: ROIG (ISHIGAKIJIMA ISL, JP) observed 0700 UTC 20 January 2019
Temperature: 18.0°C (64°F)
Dewpoint: 18.0°C (64°F) [RH = 100%]
Pressure (altimeter): 30.03 inches Hg (1017.0 mb)
Winds: from the NNE (20 degrees) at 16 MPH (14 knots; 7.2 m/s)
Visibility: 2.49 miles (4.01 km)
Ceiling: 1000 feet AGL
Clouds: few clouds at 600 feet AGL
broken clouds at 1000 feet AGL
broken clouds at 1500 feet AGL
Weather: -SHRA BR  (light rain showers, mist)

METAR text: ROIG 200622Z 03017KT 6000 -SHRA FEW006 SCT009 BKN015 19/19 Q1018 RMK 1ST006 4CU009 6CU015 A3006
Conditions at: ROIG (ISHIGAKIJIMA ISL, JP) observed 0622 UTC 20 January 2019
Temperature: 19.0°C (66°F)
Dewpoint: 19.0°C (66°F) [RH = 100%]
Pressure (altimeter): 30.06 inches Hg (1018.0 mb)
Winds: from the NNE (30 degrees) at 20 MPH (17 knots; 8.7 m/s)
Visibility: 4 miles ( 6 km)
Ceiling: 1500 feet AGL
Clouds: few clouds at 600 feet AGL
scattered clouds at 900 feet AGL
broken clouds at 1500 feet AGL
Weather: -SHRA  (light rain showers)

METAR text: ROIG 200600Z 03020KT 5000 SHRA FEW006 BKN010 BKN020 19/19 Q1017
Conditions at: ROIG (ISHIGAKIJIMA ISL, JP) observed 0600 UTC 20 January 2019
Temperature: 19.0°C (66°F)
Dewpoint: 19.0°C (66°F) [RH = 100%]
Pressure (altimeter): 30.03 inches Hg (1017.0 mb)
Winds: from the NNE (30 degrees) at 23 MPH (20 knots; 10.3 m/s)
Visibility: 3 miles ( 5 km)
Ceiling: 1000 feet AGL
Clouds: few clouds at 600 feet AGL
broken clouds at 1000 feet AGL
broken clouds at 2000 feet AGL
Weather: SHRA  (rain showers)

METAR text: ROIG 200542Z 03020KT 5000 SHRA FEW006 BKN013 BKN030 19/19 Q1017 RMK 1ST006 5CU013 7CU030 A3005
Conditions at: ROIG (ISHIGAKIJIMA ISL, JP) observed 0542 UTC 20 January 2019
Temperature: 19.0°C (66°F)
Dewpoint: 19.0°C (66°F) [RH = 100%]
Pressure (altimeter): 30.03 inches Hg (1017.0 mb)
Winds: from the NNE (30 degrees) at 23 MPH (20 knots; 10.3 m/s)
Visibility: 3 miles ( 5 km)
Ceiling: 1300 feet AGL
Clouds: few clouds at 600 feet AGL
broken clouds at 1300 feet AGL
broken clouds at 3000 feet AGL
Weather: SHRA  (rain showers)

METAR text: ROIG 200522Z 02017KT 5000 R04/1700D SHRA FEW006 BKN013 BKN035 19/19 Q1017 RMK 2ST006 5CU013 6SC035 A3005
Conditions at: ROIG (ISHIGAKIJIMA ISL, JP) observed 0522 UTC 20 January 2019
Temperature: 19.0°C (66°F)
Dewpoint: 19.0°C (66°F) [RH = 100%]
Pressure (altimeter): 30.03 inches Hg (1017.0 mb)
Winds: from the NNE (20 degrees) at 20 MPH (17 knots; 8.7 m/s)
Visibility: 3 miles ( 5 km)
Ceiling: 1300 feet AGL
Clouds: few clouds at 600 feet AGL
broken clouds at 1300 feet AGL
broken clouds at 3500 feet AGL
Weather: SHRA  (rain showers)

METAR text: ROIG 200500Z 03018KT 8000 -SHRA FEW008 BKN013 FEW025TCU BKN040 19/19 Q1018
Conditions at: ROIG (ISHIGAKIJIMA ISL, JP) observed 0500 UTC 20 January 2019
Temperature: 19.0°C (66°F)
Dewpoint: 19.0°C (66°F) [RH = 100%]
Pressure (altimeter): 30.06 inches Hg (1018.0 mb)
Winds: from the NNE (30 degrees) at 21 MPH (18 knots; 9.3 m/s)
Visibility: 5 miles ( 8 km)
Ceiling: 1300 feet AGL
Clouds: few clouds at 800 feet AGL
broken clouds at 1300 feet AGL
few clouds at 2500 feet AGL
broken clouds at 4000 feet AGL
Weather: -SHRA  (light rain showers)

METAR text: ROIG 200447Z 03017KT 7000 R04/1400VP1800U SHRA FEW007 BKN012 FEW025TCU BKN040 19/19 Q1018 RMK 1ST007 5CU012 1TCU025 7SC040 A3007 TCU 10KM SE MOV SE
Conditions at: ROIG (ISHIGAKIJIMA ISL, JP) observed 0447 UTC 20 January 2019
Temperature: 19.0°C (66°F)
Dewpoint: 19.0°C (66°F) [RH = 100%]
Pressure (altimeter): 30.06 inches Hg (1018.0 mb)
Winds: from the NNE (30 degrees) at 20 MPH (17 knots; 8.7 m/s)
Visibility: 4 miles ( 7 km)
Ceiling: 1200 feet AGL
Clouds: few clouds at 700 feet AGL
broken clouds at 1200 feet AGL
few clouds at 2500 feet AGL
broken clouds at 4000 feet AGL
Weather: SHRA  (rain showers)

METAR text: ROIG 200436Z 02015KT 4500 R04/1200VP1800D SHRA FEW006 BKN012 FEW020TCU 19/19 Q1018 RMK 2ST006 6CU012 1TCU020 A3007 TCU 8KM SE-S MOV SE
Conditions at: ROIG (ISHIGAKIJIMA ISL, JP) observed 0436 UTC 20 January 2019
Temperature: 19.0°C (66°F)
Dewpoint: 19.0°C (66°F) [RH = 100%]
Pressure (altimeter): 30.06 inches Hg (1018.0 mb)
Winds: from the NNE (20 degrees) at 17 MPH (15 knots; 7.7 m/s)
Visibility: 2.80 miles (4.51 km)
Ceiling: 1200 feet AGL
Clouds: few clouds at 600 feet AGL
broken clouds at 1200 feet AGL
few clouds at 2000 feet AGL
Weather: SHRA  (rain showers)

METAR text: ROIG 200426Z 02014KT 4500 R04/0750V1400N SHRA FEW005 SCT009 BKN014 FEW020TCU 19/19 Q1018 RMK 2ST005 4CU009 6CU014 1TCU020 A3007 TCU OHD MOV SE
Conditions at: ROIG (ISHIGAKIJIMA ISL, JP) observed 0426 UTC 20 January 2019
Temperature: 19.0°C (66°F)
Dewpoint: 19.0°C (66°F) [RH = 100%]
Pressure (altimeter): 30.06 inches Hg (1018.0 mb)
Winds: from the NNE (20 degrees) at 16 MPH (14 knots; 7.2 m/s)
Visibility: 2.80 miles (4.51 km)
Ceiling: 1400 feet AGL
Clouds: few clouds at 500 feet AGL
scattered clouds at 900 feet AGL
broken clouds at 1400 feet AGL
few clouds at 2000 feet AGL
Weather: SHRA  (rain showers)

METAR text: ROIG 200421Z 01012KT 3500 R04/0800VP1800D +SHRA FEW004 SCT009 BKN014 FEW020TCU 20/20 Q1018 RMK 1ST004 3CU009 6CU014 1TCU020 A3008 TCU OHD MOV SE RI++
Conditions at: ROIG (ISHIGAKIJIMA ISL, JP) observed 0421 UTC 20 January 2019
Temperature: 20.0°C (68°F)
Dewpoint: 20.0°C (68°F) [RH = 100%]
Pressure (altimeter): 30.06 inches Hg (1018.0 mb)
Winds: from the N (10 degrees) at 14 MPH (12 knots; 6.2 m/s)
Visibility: 2.17 miles (3.49 km)
Ceiling: 1400 feet AGL
Clouds: few clouds at 400 feet AGL
scattered clouds at 900 feet AGL
broken clouds at 1400 feet AGL
few clouds at 2000 feet AGL
Weather: +SHRA  (heavy rain showers)

METAR text: ROIG 200413Z 01011KT 4500 R04/0750VP1800U SHRA FEW007 BKN015 FEW025TCU 20/19 Q1018 RMK 2ST007 6CU015 1TCU025 A3008 TCU OHD MOV SE
Conditions at: ROIG (ISHIGAKIJIMA ISL, JP) observed 0413 UTC 20 January 2019
Temperature: 20.0°C (68°F)
Dewpoint: 19.0°C (66°F) [RH = 94%]
Pressure (altimeter): 30.06 inches Hg (1018.0 mb)
Winds: from the N (10 degrees) at 13 MPH (11 knots; 5.7 m/s)
Visibility: 2.80 miles (4.51 km)
Ceiling: 1500 feet AGL
Clouds: few clouds at 700 feet AGL
broken clouds at 1500 feet AGL
few clouds at 2500 feet AGL
Weather: SHRA  (rain showers)

METAR text: ROIG 200409Z 02012KT 4500 R04/0750V1800D +SHRA FEW007 BKN015 FEW025TCU BKN050 19/19 Q1018 RMK 2ST007 5CU015 1TCU025 7SC050 A3008 TCU OHD MOV SE RI++
Conditions at: ROIG (ISHIGAKIJIMA ISL, JP) observed 0409 UTC 20 January 2019
Temperature: 19.0°C (66°F)
Dewpoint: 19.0°C (66°F) [RH = 100%]
Pressure (altimeter): 30.06 inches Hg (1018.0 mb)
Winds: from the NNE (20 degrees) at 14 MPH (12 knots; 6.2 m/s)
Visibility: 2.80 miles (4.51 km)
Ceiling: 1500 feet AGL
Clouds: few clouds at 700 feet AGL
broken clouds at 1500 feet AGL
few clouds at 2500 feet AGL
broken clouds at 5000 feet AGL
Weather: +SHRA  (heavy rain showers)

METAR text: ROIG 200400Z 02014KT 9999 R04/1700D -SHRA FEW007 BKN015 FEW025TCU BKN050 20/20 Q1018
Conditions at: ROIG (ISHIGAKIJIMA ISL, JP) observed 0400 UTC 20 January 2019
Temperature: 20.0°C (68°F)
Dewpoint: 20.0°C (68°F) [RH = 100%]
Pressure (altimeter): 30.06 inches Hg (1018.0 mb)
Winds: from the NNE (20 degrees) at 16 MPH (14 knots; 7.2 m/s)
Visibility: 6 or more miles (10+ km)
Ceiling: 1500 feet AGL
Clouds: few clouds at 700 feet AGL
broken clouds at 1500 feet AGL
few clouds at 2500 feet AGL
broken clouds at 5000 feet AGL
Weather: -SHRA  (light rain showers)

METAR text: ROIG 200300Z 33009KT 300V010 9999 FEW014 SCT027 BKN090 25/19 Q1019
Conditions at: ROIG (ISHIGAKIJIMA ISL, JP) observed 0300 UTC 20 January 2019
Temperature: 25.0°C (77°F)
Dewpoint: 19.0°C (66°F) [RH = 69%]
Pressure (altimeter): 30.09 inches Hg (1019.0 mb)
Winds: from the NNW (330 degrees) at 10 MPH (9 knots; 4.6 m/s)
Visibility: 6 or more miles (10+ km)
Ceiling: 9000 feet AGL
Clouds: few clouds at 1400 feet AGL
scattered clouds at 2700 feet AGL
broken clouds at 9000 feet AGL
Weather: no significant weather observed at this time

METAR text: ROIG 200200Z 25004KT 9999 FEW027 BKN090 24/18 Q1019
Conditions at: ROIG (ISHIGAKIJIMA ISL, JP) observed 0200 UTC 20 January 2019
Temperature: 24.0°C (75°F)
Dewpoint: 18.0°C (64°F) [RH = 69%]
Pressure (altimeter): 30.09 inches Hg (1019.0 mb)
Winds: from the WSW (250 degrees) at 5 MPH (4 knots; 2.1 m/s)
Visibility: 6 or more miles (10+ km)
Ceiling: 9000 feet AGL
Clouds: few clouds at 2700 feet AGL
broken clouds at 9000 feet AGL
Weather: no significant weather observed at this time

METAR text: ROIG 200100Z 27005KT 240V300 9999 FEW027 BKN080 23/18 Q1019
Conditions at: ROIG (ISHIGAKIJIMA ISL, JP) observed 0100 UTC 20 January 2019
Temperature: 23.0°C (73°F)
Dewpoint: 18.0°C (64°F) [RH = 73%]
Pressure (altimeter): 30.09 inches Hg (1019.0 mb)
Winds: from the W (270 degrees) at 6 MPH (5 knots; 2.6 m/s)
Visibility: 6 or more miles (10+ km)
Ceiling: 8000 feet AGL
Clouds: few clouds at 2700 feet AGL
broken clouds at 8000 feet AGL
Weather: no significant weather observed at this time

METAR text: ROIG 200000Z VRB02KT 9999 FEW027 BKN080 22/19 Q1019
Conditions at: ROIG (ISHIGAKIJIMA ISL, JP) observed 0000 UTC 20 January 2019
Temperature: 22.0°C (72°F)
Dewpoint: 19.0°C (66°F) [RH = 83%]
Pressure (altimeter): 30.09 inches Hg (1019.0 mb)
Winds: variable direction winds at 2 MPH (2 knots; 1.0 m/s)
Visibility: 6 or more miles (10+ km)
Ceiling: 8000 feet AGL
Clouds: few clouds at 2700 feet AGL
broken clouds at 8000 feet AGL
Weather: no significant weather observed at this time

METAR text: ROIG 192300Z 28003KT 9999 FEW027 BKN090 20/18 Q1018
Conditions at: ROIG (ISHIGAKIJIMA ISL, JP) observed 2300 UTC 19 January 2019
Temperature: 20.0°C (68°F)
Dewpoint: 18.0°C (64°F) [RH = 88%]
Pressure (altimeter): 30.06 inches Hg (1018.0 mb)
Winds: from the W (280 degrees) at 3 MPH (3 knots; 1.5 m/s)
Visibility: 6 or more miles (10+ km)
Ceiling: 9000 feet AGL
Clouds: few clouds at 2700 feet AGL
broken clouds at 9000 feet AGL
Weather: no significant weather observed at this time

METAR text: ROIG 192200Z 30004KT 9999 FEW027 BKN100 20/18 Q1018
Conditions at: ROIG (ISHIGAKIJIMA ISL, JP) observed 2200 UTC 19 January 2019
Temperature: 20.0°C (68°F)
Dewpoint: 18.0°C (64°F) [RH = 88%]
Pressure (altimeter): 30.06 inches Hg (1018.0 mb)
Winds: from the WNW (300 degrees) at 5 MPH (4 knots; 2.1 m/s)
Visibility: 6 or more miles (10+ km)
Ceiling: 10000 feet AGL
Clouds: few clouds at 2700 feet AGL
broken clouds at 10000 feet AGL
Weather: no significant weather observed at this time

METAR text: ROIG 192100Z 23002KT 9999 FEW027 BKN070 19/18 Q1018
Conditions at: ROIG (ISHIGAKIJIMA ISL, JP) observed 2100 UTC 19 January 2019
Temperature: 19.0°C (66°F)
Dewpoint: 18.0°C (64°F) [RH = 94%]
Pressure (altimeter): 30.06 inches Hg (1018.0 mb)
Winds: from the SW (230 degrees) at 2 MPH (2 knots; 1.0 m/s)
Visibility: 6 or more miles (10+ km)
Ceiling: 7000 feet AGL
Clouds: few clouds at 2700 feet AGL
broken clouds at 7000 feet AGL
Weather: no significant weather observed at this time

METAR text: ROIG 191100Z 11005KT 9999 FEW033 21/16 Q1019
Conditions at: ROIG (ISHIGAKIJIMA ISL, JP) observed 1100 UTC 19 January 2019
Temperature: 21.0°C (70°F)
Dewpoint: 16.0°C (61°F) [RH = 73%]
Pressure (altimeter): 30.09 inches Hg (1019.0 mb)
Winds: from the ESE (110 degrees) at 6 MPH (5 knots; 2.6 m/s)
Visibility: 6 or more miles (10+ km)
Ceiling: at least 12,000 feet AGL
Clouds: few clouds at 3300 feet AGL
Weather: no significant weather observed at this time

Forecast for: AMD
Text: TAF AMD ROIG 202038Z 2020/2200 02016KT 9999 FEW015 BKN030
Forecast period: 2000 UTC 20 January 2019 to 0000 UTC 22 January 2019
Forecast type: FROM: standard forecast or significant change
Winds: from the NNE (20 degrees) at 18 MPH (16 knots; 8.2 m/s)
Visibility: 6 or more miles 10+ km)
Ceiling: 3000 feet AGL
Clouds: few clouds at 1500 feet AGL
broken clouds at 3000 feet AGL
Weather: no significant weather forecast for this period